createdAt,value
2023-04-24T00:00:46.239Z,11.50
2023-04-24T00:03:14.404Z,11.50
2023-04-24T00:05:42.447Z,11.50
2023-04-24T00:08:09.607Z,11.50
2023-04-24T00:10:37.680Z,11.50
2023-04-24T00:13:04.801Z,11.40
2023-04-24T00:15:32.258Z,11.50
2023-04-24T00:18:02.484Z,11.50
2023-04-24T00:20:33.712Z,11.50
2023-04-24T00:23:00.758Z,11.50
2023-04-24T00:25:27.498Z,11.40
2023-04-24T00:27:54.795Z,11.40
2023-04-24T00:30:21.589Z,11.30
2023-04-24T00:32:48.339Z,11.30
2023-04-24T00:35:15.810Z,11.40
2023-04-24T00:37:44.826Z,11.50
2023-04-24T00:40:11.818Z,11.50
2023-04-24T00:42:38.689Z,11.40
2023-04-24T00:45:05.805Z,11.40
2023-04-24T00:47:33.694Z,11.40
2023-04-24T00:50:02.877Z,11.30
2023-04-24T00:52:32.290Z,11.30
2023-04-24T00:54:59.914Z,11.30
2023-04-24T00:57:29.561Z,11.20
2023-04-24T00:59:57.031Z,11.20
2023-04-24T01:02:26.890Z,11.20
2023-04-24T01:04:55.389Z,11.20
2023-04-24T01:07:22.701Z,11.20
2023-04-24T01:09:53.181Z,11.30
2023-04-24T01:12:20.471Z,11.20
2023-04-24T01:14:47.300Z,11.30
2023-04-24T01:17:16.364Z,11.20
2023-04-24T01:19:46.065Z,11.20
2023-04-24T01:22:16.232Z,11.20
2023-04-24T01:24:44.646Z,11.20
2023-04-24T01:27:13.266Z,11.20
2023-04-24T01:29:40.519Z,11.10
2023-04-24T01:32:10.746Z,11.00
2023-04-24T01:34:38.401Z,10.90
2023-04-24T01:37:06.500Z,10.90
2023-04-24T01:39:34.421Z,10.90
2023-04-24T01:42:01.727Z,10.90
2023-04-24T01:44:28.770Z,10.90
2023-04-24T01:46:56.112Z,10.90
2023-04-24T01:49:24.339Z,10.90
2023-04-24T01:51:51.297Z,11.00
2023-04-24T01:54:18.354Z,11.00
2023-04-24T01:56:45.404Z,11.00
2023-04-24T01:59:13.298Z,11.00
2023-04-24T02:01:40.721Z,11.00
2023-04-24T02:04:08.751Z,11.10
2023-04-24T02:06:36.489Z,11.10
2023-04-24T02:09:04.441Z,11.20
2023-04-24T02:11:31.514Z,11.20
2023-04-24T02:13:58.860Z,11.20
2023-04-24T02:16:27.043Z,11.30
2023-04-24T02:18:53.792Z,11.40
2023-04-24T02:21:20.500Z,11.40
2023-04-24T02:23:47.538Z,11.30
2023-04-24T02:26:14.578Z,11.30
2023-04-24T02:28:41.615Z,11.20
2023-04-24T02:31:09.583Z,11.20
2023-04-24T02:33:36.866Z,11.20
2023-04-24T02:36:04.085Z,11.20
2023-04-24T02:38:31.356Z,11.20
2023-04-24T02:40:58.575Z,11.20
2023-04-24T02:43:27.134Z,11.20
2023-04-24T02:45:54.311Z,11.10
2023-04-24T02:48:22.051Z,11.20
2023-04-24T02:50:48.996Z,11.20
2023-04-24T02:53:16.086Z,11.20
2023-04-24T02:55:43.041Z,11.20
2023-04-24T02:58:11.364Z,11.30
2023-04-24T03:00:38.301Z,11.30
2023-04-24T03:03:05.255Z,11.30
2023-04-24T03:05:32.202Z,11.30
2023-04-24T03:08:00.326Z,11.30
2023-04-24T03:10:27.084Z,11.40
2023-04-24T03:12:56.226Z,11.50
2023-04-24T03:15:23.124Z,11.50
2023-04-24T03:17:50.027Z,11.50
2023-04-24T03:20:17.198Z,11.40
2023-04-24T03:22:45.046Z,11.40
2023-04-24T03:25:12.181Z,11.30
2023-04-24T03:27:39.139Z,11.20
2023-04-24T03:30:19.614Z,11.10
2023-04-24T03:32:55.514Z,11.10
2023-04-24T03:35:28.752Z,11.00
2023-04-24T03:37:56.952Z,11.00
2023-04-24T03:40:55.361Z,11.00
2023-04-24T03:43:48.490Z,11.00
2023-04-24T03:46:16.241Z,11.00
2023-04-24T03:48:48.578Z,11.10
2023-04-24T03:51:18.158Z,11.00
2023-04-24T03:53:47.460Z,11.00
2023-04-24T03:56:18.476Z,10.90
2023-04-24T03:58:45.253Z,10.90
2023-04-24T04:01:13.011Z,10.80
2023-04-24T04:03:59.290Z,10.80
2023-04-24T04:06:27.960Z,10.80
2023-04-24T04:08:55.978Z,10.80
2023-04-24T04:11:22.689Z,10.80
2023-04-24T04:13:49.512Z,10.80
2023-04-24T04:16:19.677Z,10.80
2023-04-24T04:18:48.524Z,10.80
2023-04-24T04:21:15.937Z,10.70
2023-04-24T04:23:43.148Z,10.70
2023-04-24T04:26:15.693Z,10.60
2023-04-24T04:29:01.682Z,10.50
2023-04-24T04:31:29.170Z,10.50
2023-04-24T04:33:57.279Z,10.50
2023-04-24T04:36:24.993Z,10.50
2023-04-24T04:39:00.334Z,10.40
2023-04-24T04:41:45.181Z,10.40
2023-04-24T04:44:12.208Z,10.40
2023-04-24T04:46:39.547Z,10.50
2023-04-24T04:49:12.998Z,10.40
2023-04-24T04:51:42.399Z,10.40
2023-04-24T04:54:10.064Z,10.30
2023-04-24T04:56:37.929Z,10.30
2023-04-24T04:59:05.220Z,10.30
2023-04-24T05:01:31.942Z,10.30
2023-04-24T05:03:58.824Z,10.20
2023-04-24T05:06:27.068Z,10.30
2023-04-24T05:08:58.239Z,10.30
2023-04-24T05:11:32.564Z,10.20
2023-04-24T05:14:01.439Z,10.30
2023-04-24T05:16:35.524Z,10.30
2023-04-24T05:19:02.229Z,10.40
2023-04-24T05:21:34.529Z,10.40
2023-04-24T05:24:01.440Z,10.50
2023-04-24T05:26:45.548Z,10.50
2023-04-24T05:29:13.476Z,10.60
2023-04-24T05:31:40.416Z,10.60
2023-04-24T05:34:07.344Z,10.70
2023-04-24T05:36:35.445Z,10.80
2023-04-24T05:39:02.512Z,11.00
2023-04-24T05:41:29.173Z,11.20
2023-04-24T05:43:56.461Z,11.40
2023-04-24T05:46:23.195Z,11.40
2023-04-24T05:48:50.377Z,11.40
2023-04-24T05:51:17.423Z,11.40
2023-04-24T05:53:44.267Z,11.50
2023-04-24T05:56:12.420Z,11.50
2023-04-24T05:58:39.276Z,11.40
2023-04-24T06:01:05.983Z,11.40
2023-04-24T06:03:34.022Z,11.20
2023-04-24T06:06:03.625Z,11.20
2023-04-24T06:08:30.517Z,11.10
2023-04-24T06:10:57.133Z,11.10
2023-04-24T06:13:23.861Z,11.00
2023-04-24T06:16:13.687Z,10.80
2023-04-24T06:18:44.079Z,10.80
2023-04-24T06:21:10.855Z,10.80
2023-04-24T06:23:37.627Z,10.90
2023-04-24T06:26:04.397Z,11.10
2023-04-24T06:28:32.411Z,11.20
2023-04-24T06:30:59.118Z,11.30
2023-04-24T06:33:25.791Z,11.30
2023-04-24T06:35:52.592Z,11.50
2023-04-24T06:38:19.363Z,11.30
2023-04-24T06:40:46.218Z,11.20
2023-04-24T06:43:12.900Z,11.20
2023-04-24T06:45:40.798Z,11.20
2023-04-24T06:48:07.738Z,11.30
2023-04-24T06:50:34.465Z,11.50
2023-04-24T06:53:01.135Z,11.70
2023-04-24T06:55:27.781Z,11.90
2023-04-24T06:57:54.385Z,11.90
2023-04-24T07:00:21.288Z,12.00
2023-04-24T07:02:48.042Z,12.10
2023-04-24T07:05:16.198Z,12.10
2023-04-24T07:07:44.873Z,12.20
2023-04-24T07:10:11.614Z,12.30
2023-04-24T07:12:38.461Z,12.30
2023-04-24T07:15:06.278Z,12.30
2023-04-24T07:17:32.987Z,12.40
2023-04-24T07:19:59.729Z,12.50
2023-04-24T07:22:26.585Z,12.50
2023-04-24T07:24:53.235Z,12.30
2023-04-24T07:27:19.877Z,12.40
2023-04-24T07:29:46.772Z,12.40
2023-04-24T07:32:13.623Z,12.50
2023-04-24T07:34:40.956Z,12.40
2023-04-24T07:37:07.675Z,12.30
2023-04-24T07:39:34.408Z,12.40
2023-04-24T07:42:02.465Z,12.40
2023-04-24T07:44:29.250Z,12.50
2023-04-24T07:46:56.493Z,12.80
2023-04-24T07:49:23.353Z,12.90
2023-04-24T07:51:50.699Z,12.90
2023-04-24T07:54:17.615Z,12.80
2023-04-24T07:56:44.383Z,12.90
2023-04-24T07:59:11.371Z,12.90
2023-04-24T08:01:38.636Z,13.00
2023-04-24T08:04:05.658Z,13.00
2023-04-24T08:06:32.848Z,13.10
2023-04-24T08:09:01.016Z,12.90
2023-04-24T08:11:28.075Z,12.70
2023-04-24T08:13:55.910Z,12.90
2023-04-24T08:16:24.860Z,13.10
2023-04-24T08:18:51.802Z,13.40
2023-04-24T08:21:19.652Z,13.90
2023-04-24T08:23:46.864Z,14.30
2023-04-24T08:26:13.958Z,14.80
2023-04-24T08:28:40.679Z,15.30
2023-04-24T08:31:07.446Z,15.00
2023-04-24T08:33:36.996Z,14.90
2023-04-24T08:36:07.049Z,14.90
2023-04-24T08:38:34.589Z,14.70
2023-04-24T08:41:02.013Z,14.40
2023-04-24T08:43:29.142Z,14.10
2023-04-24T08:45:57.337Z,14.40
2023-04-24T08:48:30.780Z,15.20
2023-04-24T08:50:59.332Z,15.30
2023-04-24T08:53:26.840Z,15.30
2023-04-24T08:55:54.986Z,15.00
2023-04-24T08:58:21.653Z,14.30
2023-04-24T09:00:49.036Z,13.70
2023-04-24T09:03:17.123Z,13.60
2023-04-24T09:05:47.013Z,13.40
2023-04-24T09:08:14.709Z,13.10
2023-04-24T09:10:41.566Z,12.90
2023-04-24T09:13:10.150Z,12.80
2023-04-24T09:15:41.416Z,12.80
2023-04-24T09:18:08.227Z,12.70
2023-04-24T09:20:37.043Z,12.80
2023-04-24T09:23:03.752Z,12.70
2023-04-24T09:25:32.899Z,12.90
2023-04-24T09:28:02.042Z,13.10
2023-04-24T09:30:28.808Z,13.10
2023-04-24T09:33:14.421Z,13.00
2023-04-24T09:35:41.644Z,12.90
2023-04-24T09:38:08.310Z,12.90
2023-04-24T09:40:35.731Z,13.00
2023-04-24T09:43:03.692Z,13.20
2023-04-24T09:45:37.303Z,13.10
2023-04-24T09:48:04.481Z,13.30
2023-04-24T09:50:33.004Z,13.30
2023-04-24T09:53:02.227Z,13.20
2023-04-24T09:55:29.763Z,13.40
2023-04-24T09:57:57.597Z,13.90
2023-04-24T10:00:29.411Z,14.60
2023-04-24T10:03:06.891Z,14.90
2023-04-24T10:05:34.826Z,14.90
2023-04-24T10:08:04.656Z,14.60
2023-04-24T10:10:36.005Z,14.60
2023-04-24T10:13:03.155Z,14.20
2023-04-24T10:15:30.107Z,13.90
2023-04-24T10:17:58.545Z,13.90
2023-04-24T10:20:32.226Z,13.70
2023-04-24T10:22:59.604Z,13.60
2023-04-24T10:25:27.318Z,13.20
2023-04-24T10:27:58.114Z,13.30
2023-04-24T10:30:24.812Z,13.30
2023-04-24T10:32:51.516Z,13.70
2023-04-24T10:35:19.319Z,15.30
2023-04-24T10:37:47.303Z,15.60
2023-04-24T10:40:18.098Z,16.40
2023-04-24T10:42:47.764Z,16.60
2023-04-24T10:45:19.080Z,17.10
2023-04-24T10:47:57.948Z,16.10
2023-04-24T10:50:25.702Z,15.70
2023-04-24T10:52:53.638Z,14.70
2023-04-24T10:55:40.761Z,14.00
2023-04-24T10:58:07.598Z,13.50
2023-04-24T11:00:37.196Z,13.20
2023-04-24T11:03:05.734Z,13.30
2023-04-24T11:05:51.218Z,13.20
2023-04-24T11:08:23.772Z,12.60
2023-04-24T11:10:58.834Z,12.70
2023-04-24T11:13:27.018Z,12.60
2023-04-24T11:16:12.506Z,12.40
2023-04-24T11:18:40.285Z,12.50
2023-04-24T11:21:33.289Z,12.90
2023-04-24T11:23:59.954Z,13.20
2023-04-24T11:26:33.139Z,14.60
2023-04-24T11:29:09.170Z,15.30
2023-04-24T11:31:40.028Z,15.20
2023-04-24T11:34:08.050Z,15.00
2023-04-24T11:36:35.926Z,14.40
2023-04-24T11:39:03.164Z,13.70
2023-04-24T11:41:29.944Z,13.50
2023-04-24T11:43:58.280Z,13.10
2023-04-24T11:46:27.971Z,12.50
2023-04-24T11:48:54.835Z,12.10
2023-04-24T11:51:21.608Z,11.90
2023-04-24T11:53:49.690Z,12.30
2023-04-24T11:56:26.240Z,13.20
2023-04-24T11:58:54.722Z,13.30
2023-04-24T12:01:22.128Z,13.90
2023-04-24T12:03:50.110Z,16.00
2023-04-24T12:06:17.357Z,17.10
2023-04-24T12:08:46.799Z,17.90
2023-04-24T12:11:15.888Z,19.20
2023-04-24T12:13:42.589Z,19.30
2023-04-24T12:16:09.553Z,18.80
2023-04-24T12:18:36.339Z,18.40
2023-04-24T12:21:23.303Z,18.30
2023-04-24T12:23:51.838Z,17.90
2023-04-24T12:26:19.865Z,18.40
2023-04-24T12:28:48.933Z,17.90
2023-04-24T12:31:16.225Z,16.70
2023-04-24T12:33:44.144Z,15.20
2023-04-24T12:36:11.603Z,14.30
2023-04-24T12:38:41.806Z,13.70
2023-04-24T12:41:09.715Z,13.10
2023-04-24T12:43:37.172Z,12.80
2023-04-24T12:46:04.284Z,12.60
2023-04-24T12:48:31.601Z,12.40
2023-04-24T12:51:02.096Z,12.20
2023-04-24T12:53:30.477Z,12.20
2023-04-24T12:55:57.554Z,12.40
2023-04-24T12:58:24.358Z,12.70
2023-04-24T13:00:51.435Z,13.20
2023-04-24T13:03:18.613Z,13.80
2023-04-24T13:05:45.564Z,14.40
2023-04-24T13:08:13.748Z,15.10
2023-04-24T13:10:41.130Z,17.30
2023-04-24T13:13:08.326Z,19.60
2023-04-24T13:15:35.350Z,21.50
2023-04-24T13:18:02.550Z,23.20
2023-04-24T13:20:29.251Z,22.40
2023-04-24T13:22:56.185Z,21.00
2023-04-24T13:25:24.476Z,19.90
2023-04-24T13:27:51.731Z,18.60
2023-04-24T13:30:18.493Z,17.80
2023-04-24T13:32:45.389Z,17.40
2023-04-24T13:35:12.221Z,17.70
2023-04-24T13:37:39.112Z,17.80
2023-04-24T13:40:07.119Z,17.00
2023-04-24T13:42:34.173Z,16.10
2023-04-24T13:45:02.345Z,15.30
2023-04-24T13:47:33.157Z,15.10
2023-04-24T13:50:00.054Z,14.90
2023-04-24T13:52:26.803Z,14.70
2023-04-24T13:54:53.530Z,14.30
2023-04-24T13:57:20.360Z,14.10
2023-04-24T13:59:47.531Z,14.10
2023-04-24T14:02:14.766Z,14.30
2023-04-24T14:04:42.003Z,15.00
2023-04-24T14:07:09.482Z,16.00
2023-04-24T14:09:36.254Z,16.90
2023-04-24T14:12:03.337Z,17.30
2023-04-24T14:14:30.888Z,18.40
2023-04-24T14:16:57.963Z,19.70
2023-04-24T14:19:24.861Z,19.60
2023-04-24T14:21:51.592Z,18.70
2023-04-24T14:24:18.606Z,18.40
2023-04-24T14:26:45.453Z,18.10
2023-04-24T14:29:15.215Z,17.40
2023-04-24T14:31:42.640Z,16.40
2023-04-24T14:34:09.839Z,16.00
2023-04-24T14:36:36.677Z,15.50
2023-04-24T14:39:08.305Z,15.40
2023-04-24T14:41:37.191Z,15.20
2023-04-24T14:44:04.255Z,15.20
2023-04-24T14:46:31.364Z,15.30
2023-04-24T14:48:58.672Z,15.30
2023-04-24T14:51:26.144Z,15.20
2023-04-24T14:53:53.055Z,15.40
2023-04-24T14:56:20.964Z,15.50
2023-04-24T14:58:51.194Z,15.30
2023-04-24T15:01:21.067Z,15.10
2023-04-24T15:03:48.566Z,14.90
2023-04-24T15:06:15.757Z,15.10
2023-04-24T15:08:43.016Z,15.00
2023-04-24T15:11:13.294Z,15.20
2023-04-24T15:14:04.920Z,15.10
2023-04-24T15:16:33.312Z,15.10
2023-04-24T15:19:00.597Z,15.40
2023-04-24T15:21:30.806Z,15.60
2023-04-24T15:23:58.110Z,16.10
2023-04-24T15:26:25.384Z,17.30
2023-04-24T15:28:52.691Z,18.00
2023-04-24T15:31:19.823Z,19.50
2023-04-24T15:33:47.022Z,20.60
2023-04-24T15:36:13.990Z,20.20
2023-04-24T15:38:40.710Z,19.30
2023-04-24T15:41:07.511Z,18.50
2023-04-24T15:43:35.603Z,17.80
2023-04-24T15:46:02.979Z,17.60
2023-04-24T15:48:30.082Z,17.50
2023-04-24T15:50:57.426Z,16.80
2023-04-24T15:53:24.740Z,16.40
2023-04-24T15:55:51.915Z,16.20
2023-04-24T15:58:19.945Z,15.70
2023-04-24T16:00:46.761Z,15.30
2023-04-24T16:03:14.155Z,15.30
2023-04-24T16:05:41.359Z,15.10
2023-04-24T16:08:08.551Z,15.00
2023-04-24T16:10:40.789Z,15.00
2023-04-24T16:13:10.962Z,15.00
2023-04-24T16:15:39.090Z,14.90
2023-04-24T16:18:06.528Z,14.70
2023-04-24T16:20:33.724Z,14.50
2023-04-24T16:23:00.612Z,14.40
2023-04-24T16:25:27.730Z,14.40
2023-04-24T16:27:54.563Z,14.20
2023-04-24T16:30:21.431Z,14.20
2023-04-24T16:32:48.262Z,14.10
2023-04-24T16:35:15.115Z,14.20
2023-04-24T16:37:42.573Z,14.20
2023-04-24T16:40:11.098Z,14.30
2023-04-24T16:42:38.356Z,14.40
2023-04-24T16:45:06.719Z,14.40
2023-04-24T16:47:33.537Z,14.40
2023-04-24T16:50:00.534Z,14.60
2023-04-24T16:52:27.812Z,14.90
2023-04-24T16:54:54.911Z,15.50
2023-04-24T16:57:24.610Z,16.00
2023-04-24T16:59:51.902Z,15.80
2023-04-24T17:02:18.861Z,15.50
2023-04-24T17:04:46.224Z,15.20
2023-04-24T17:07:13.295Z,14.90
2023-04-24T17:09:40.713Z,14.70
2023-04-24T17:12:08.307Z,14.50
2023-04-24T17:14:34.996Z,14.30
2023-04-24T17:17:01.827Z,14.20
2023-04-24T17:19:29.056Z,14.10
2023-04-24T17:21:57.624Z,14.10
2023-04-24T17:24:24.412Z,14.00
2023-04-24T17:26:51.963Z,13.90
2023-04-24T17:29:19.807Z,13.80
2023-04-24T17:31:46.572Z,13.70
2023-04-24T17:34:13.308Z,13.60
2023-04-24T17:36:40.066Z,13.50
2023-04-24T17:39:07.175Z,13.40
2023-04-24T17:41:34.059Z,13.00
2023-04-24T17:44:01.001Z,12.70
2023-04-24T17:46:28.430Z,12.30
2023-04-24T17:49:03.101Z,12.10
2023-04-24T17:51:29.855Z,11.80
2023-04-24T17:53:56.772Z,11.70
2023-04-24T17:56:25.052Z,11.50
2023-04-24T17:58:52.323Z,11.50
2023-04-24T18:01:19.247Z,11.40
2023-04-24T18:03:46.189Z,11.30
2023-04-24T18:06:17.263Z,11.30
2023-04-24T18:08:44.009Z,11.20
2023-04-24T18:11:10.809Z,11.10
2023-04-24T18:13:38.555Z,11.00
2023-04-24T18:16:05.518Z,10.90
2023-04-24T18:18:32.384Z,10.90
2023-04-24T18:20:59.214Z,10.80
2023-04-24T18:23:26.091Z,10.70
2023-04-24T18:25:53.002Z,10.60
2023-04-24T18:28:19.940Z,10.60
2023-04-24T18:30:47.529Z,10.60
2023-04-24T18:33:14.254Z,10.60
2023-04-24T18:35:41.155Z,10.60
2023-04-24T18:38:08.041Z,10.50
2023-04-24T18:40:34.789Z,10.50
2023-04-24T18:43:01.526Z,10.50
2023-04-24T18:45:28.229Z,10.50
2023-04-24T18:47:55.098Z,10.50
2023-04-24T18:50:22.040Z,10.60
2023-04-24T18:52:48.886Z,10.50
2023-04-24T18:55:15.645Z,10.60
2023-04-24T18:57:42.775Z,10.60
2023-04-24T19:00:09.771Z,10.60
2023-04-24T19:02:36.740Z,10.70
2023-04-24T19:05:04.051Z,10.60
2023-04-24T19:07:31.900Z,10.60
2023-04-24T19:09:58.663Z,10.60
2023-04-24T19:12:25.437Z,10.50
2023-04-24T19:14:52.278Z,10.50
2023-04-24T19:17:24.386Z,10.50
2023-04-24T19:19:51.293Z,10.50
2023-04-24T19:22:18.815Z,10.50
2023-04-24T19:24:46.514Z,10.50
2023-04-24T19:27:13.351Z,10.50
2023-04-24T19:29:42.157Z,10.50
2023-04-24T19:32:08.962Z,10.50
2023-04-24T19:34:36.374Z,10.60
2023-04-24T19:37:04.545Z,10.50
2023-04-24T19:39:32.462Z,10.50
2023-04-24T19:42:01.178Z,10.40
2023-04-24T19:44:27.930Z,10.30
2023-04-24T19:46:54.633Z,10.30
2023-04-24T19:49:21.694Z,10.30
2023-04-24T19:51:48.999Z,10.10
2023-04-24T19:54:16.118Z,10.10
2023-04-24T19:56:43.032Z,10.10
2023-04-24T19:59:09.936Z,10.10
2023-04-24T20:01:36.768Z,10.10
2023-04-24T20:04:03.558Z,10.10
2023-04-24T20:06:30.616Z,10.00
2023-04-24T20:08:57.285Z,10.00
2023-04-24T20:11:24.550Z,9.90
2023-04-24T20:13:51.226Z,9.90
2023-04-24T20:16:21.160Z,9.90
2023-04-24T20:18:48.417Z,9.80
2023-04-24T20:21:15.350Z,9.80
2023-04-24T20:23:42.049Z,9.80
2023-04-24T20:26:10.008Z,9.80
2023-04-24T20:28:36.721Z,9.70
2023-04-24T20:31:03.584Z,9.70
2023-04-24T20:33:30.772Z,9.70
2023-04-24T20:35:57.491Z,9.70
2023-04-24T20:38:24.436Z,9.60
2023-04-24T20:40:57.830Z,9.60
2023-04-24T20:43:28.747Z,9.60
2023-04-24T20:45:57.630Z,9.60
2023-04-24T20:48:27.894Z,9.60
2023-04-24T20:50:55.273Z,9.50
2023-04-24T20:53:22.159Z,9.50
2023-04-24T20:55:48.979Z,9.50
2023-04-24T20:58:16.854Z,9.50
2023-04-24T21:00:43.715Z,9.50
2023-04-24T21:03:10.538Z,9.60
2023-04-24T21:05:37.333Z,9.50
2023-04-24T21:08:04.116Z,9.50
2023-04-24T21:10:31.145Z,9.60
2023-04-24T21:12:57.930Z,9.70
2023-04-24T21:15:24.699Z,9.70
2023-04-24T21:17:51.421Z,9.70
2023-04-24T21:20:18.159Z,9.60
2023-04-24T21:22:45.517Z,9.70
2023-04-24T21:25:12.354Z,9.70
2023-04-24T21:27:39.270Z,9.80
2023-04-24T21:30:06.445Z,9.70
2023-04-24T21:32:33.463Z,9.70
2023-04-24T21:35:00.255Z,9.60
2023-04-24T21:37:27.148Z,9.70
2023-04-24T21:39:56.127Z,9.70
2023-04-24T21:42:22.816Z,9.70
2023-04-24T21:44:51.014Z,9.70
2023-04-24T21:47:17.758Z,9.70
2023-04-24T21:49:44.536Z,9.80
2023-04-24T21:52:11.530Z,9.80
2023-04-24T21:54:38.473Z,9.80
2023-04-24T21:57:05.644Z,9.90
2023-04-24T21:59:33.439Z,9.90
2023-04-24T22:02:00.362Z,9.90
2023-04-24T22:04:27.703Z,9.90
2023-04-24T22:06:54.608Z,9.90
2023-04-24T22:09:21.594Z,9.80
2023-04-24T22:11:48.802Z,9.80
2023-04-24T22:14:15.722Z,9.80
2023-04-24T22:16:43.071Z,9.80
2023-04-24T22:19:10.284Z,9.80
2023-04-24T22:21:39.536Z,9.80
2023-04-24T22:24:06.920Z,9.70
2023-04-24T22:26:34.111Z,9.70
2023-04-24T22:29:01.530Z,9.70
2023-04-24T22:31:28.482Z,9.70
2023-04-24T22:33:55.618Z,9.60
2023-04-24T22:36:22.576Z,9.60
2023-04-24T22:38:49.588Z,9.50
2023-04-24T22:41:16.599Z,9.50
2023-04-24T22:43:44.070Z,9.40
2023-04-24T22:46:11.121Z,9.30
2023-04-24T22:48:38.837Z,9.30
2023-04-24T22:51:06.738Z,9.30
2023-04-24T22:53:33.626Z,9.20
2023-04-24T22:56:00.484Z,9.10
2023-04-24T22:58:27.377Z,9.10
2023-04-24T23:00:54.281Z,9.10
2023-04-24T23:03:21.189Z,9.00
2023-04-24T23:05:48.687Z,9.00
2023-04-24T23:08:15.948Z,9.00
2023-04-24T23:10:42.823Z,9.00
2023-04-24T23:13:09.804Z,9.00
2023-04-24T23:15:39.080Z,8.90
2023-04-24T23:18:06.492Z,8.90
2023-04-24T23:20:33.192Z,8.80
2023-04-24T23:23:00.449Z,8.80
2023-04-24T23:25:27.091Z,8.80
2023-04-24T23:27:53.729Z,8.70
2023-04-24T23:30:20.712Z,8.70
2023-04-24T23:32:47.371Z,8.70
2023-04-24T23:35:14.232Z,8.60
2023-04-24T23:37:41.224Z,8.60
2023-04-24T23:40:10.049Z,8.60
2023-04-24T23:42:36.964Z,8.60
2023-04-24T23:45:04.008Z,8.60
2023-04-24T23:47:30.762Z,8.60
2023-04-24T23:49:57.424Z,8.50
2023-04-24T23:52:24.145Z,8.50
2023-04-24T23:54:50.901Z,8.50
2023-04-24T23:57:17.522Z,8.50
2023-04-24T23:59:44.233Z,8.50
